Terminal Aerodrome Forecast
Issued by NWS Chicago, IL

Home | Current Version | Previous Version | Text Only | Print | Product List | Glossary Off
Versions: 1 2 3 4 5 6 7 8 9 10 11 12 13 14 15 16 17 18 19 20 21 22 23

103
FTUS43 KLOT 240520
TAFRFD
TAF
KRFD 240520Z 2406/2506 17005KT P6SM BKN250 WS020/20040KT
     FM241100 19006KT P6SM BKN250
     FM241500 20010KT P6SM SCT050 BKN250 PROB30 2423/2501 4SM TSRA
      BKN050CB
     FM250100 19006KT P6SM SCT080 BKN150=

USA.gov is the U.S. government's official web portal to all federal, state and local government web resources and services.